sensor_id;sensor_type;location;lat;lon;timestamp;P1;durP1;ratioP1;P2;durP2;ratioP2
32032;SDS011;31720;52.638;9.216;2023-02-28T00:01:21;3.38;;;1.50;;
32032;SDS011;31720;52.638;9.216;2023-02-28T00:04:22;7.85;;;2.25;;
32032;SDS011;31720;52.638;9.216;2023-02-28T00:07:24;3.08;;;1.55;;
32032;SDS011;31720;52.638;9.216;2023-02-28T00:10:27;3.00;;;1.80;;
32032;SDS011;31720;52.638;9.216;2023-02-28T00:13:30;3.63;;;1.38;;
32032;SDS011;31720;52.638;9.216;2023-02-28T00:16:31;2.75;;;1.77;;
32032;SDS011;31720;52.638;9.216;2023-02-28T00:19:33;3.15;;;1.50;;
32032;SDS011;31720;52.638;9.216;2023-02-28T00:22:34;3.22;;;1.38;;
32032;SDS011;31720;52.638;9.216;2023-02-28T00:25:37;1.73;;;1.13;;
32032;SDS011;31720;52.638;9.216;2023-02-28T00:28:38;4.80;;;1.75;;
32032;SDS011;31720;52.638;9.216;2023-02-28T00:31:39;4.15;;;2.28;;
32032;SDS011;31720;52.638;9.216;2023-02-28T00:34:41;4.68;;;1.67;;
32032;SDS011;31720;52.638;9.216;2023-02-28T00:37:42;1.73;;;1.25;;
32032;SDS011;31720;52.638;9.216;2023-02-28T00:40:45;1.75;;;0.98;;
32032;SDS011;31720;52.638;9.216;2023-02-28T00:43:47;0.90;;;0.85;;
32032;SDS011;31720;52.638;9.216;2023-02-28T00:46:48;0.75;;;0.75;;
32032;SDS011;31720;52.638;9.216;2023-02-28T00:49:49;1.88;;;1.20;;
32032;SDS011;31720;52.638;9.216;2023-02-28T00:52:51;2.30;;;1.52;;
32032;SDS011;31720;52.638;9.216;2023-02-28T00:55:53;1.80;;;1.25;;
32032;SDS011;31720;52.638;9.216;2023-02-28T00:58:55;2.40;;;1.17;;
32032;SDS011;31720;52.638;9.216;2023-02-28T01:01:56;1.60;;;1.00;;
32032;SDS011;31720;52.638;9.216;2023-02-28T01:04:57;2.33;;;0.93;;
32032;SDS011;31720;52.638;9.216;2023-02-28T01:07:58;2.15;;;1.20;;
32032;SDS011;31720;52.638;9.216;2023-02-28T01:11:07;2.45;;;1.63;;
32032;SDS011;31720;52.638;9.216;2023-02-28T01:14:11;3.65;;;0.73;;
32032;SDS011;31720;52.638;9.216;2023-02-28T01:17:15;3.28;;;1.83;;
32032;SDS011;31720;52.638;9.216;2023-02-28T01:20:16;1.48;;;0.80;;
32032;SDS011;31720;52.638;9.216;2023-02-28T01:23:18;2.00;;;0.90;;
32032;SDS011;31720;52.638;9.216;2023-02-28T01:26:21;1.90;;;0.88;;
32032;SDS011;31720;52.638;9.216;2023-02-28T01:29:23;2.35;;;1.33;;
32032;SDS011;31720;52.638;9.216;2023-02-28T01:32:24;1.88;;;1.10;;
32032;SDS011;31720;52.638;9.216;2023-02-28T01:35:26;1.85;;;1.10;;
32032;SDS011;31720;52.638;9.216;2023-02-28T01:38:27;1.48;;;1.10;;
32032;SDS011;31720;52.638;9.216;2023-02-28T01:41:31;1.85;;;0.98;;
32032;SDS011;31720;52.638;9.216;2023-02-28T01:48:07;2.45;;;1.13;;
32032;SDS011;31720;52.638;9.216;2023-02-28T01:51:10;2.08;;;1.30;;
32032;SDS011;31720;52.638;9.216;2023-02-28T01:54:16;1.95;;;1.35;;
32032;SDS011;31720;52.638;9.216;2023-02-28T01:57:21;1.95;;;0.90;;
32032;SDS011;31720;52.638;9.216;2023-02-28T02:00:26;1.75;;;0.90;;
32032;SDS011;31720;52.638;9.216;2023-02-28T02:03:29;1.83;;;1.40;;
32032;SDS011;31720;52.638;9.216;2023-02-28T02:06:34;3.40;;;1.50;;
32032;SDS011;31720;52.638;9.216;2023-02-28T02:09:38;1.65;;;1.17;;
32032;SDS011;31720;52.638;9.216;2023-02-28T02:12:46;4.47;;;1.40;;
32032;SDS011;31720;52.638;9.216;2023-02-28T02:16:04;1.00;;;0.75;;
32032;SDS011;31720;52.638;9.216;2023-02-28T02:19:22;1.73;;;1.25;;
32032;SDS011;31720;52.638;9.216;2023-02-28T02:22:51;2.15;;;1.23;;
32032;SDS011;31720;52.638;9.216;2023-02-28T02:26:28;4.93;;;1.92;;
32032;SDS011;31720;52.638;9.216;2023-02-28T02:30:02;1.40;;;1.05;;
32032;SDS011;31720;52.638;9.216;2023-02-28T02:33:39;1.85;;;0.88;;
32032;SDS011;31720;52.638;9.216;2023-02-28T02:40:11;2.15;;;1.00;;
32032;SDS011;31720;52.638;9.216;2023-02-28T02:43:17;1.40;;;1.08;;
32032;SDS011;31720;52.638;9.216;2023-02-28T02:46:25;4.43;;;1.60;;
32032;SDS011;31720;52.638;9.216;2023-02-28T02:49:31;1.52;;;0.98;;
32032;SDS011;31720;52.638;9.216;2023-02-28T02:52:35;3.13;;;1.60;;
32032;SDS011;31720;52.638;9.216;2023-02-28T02:55:41;1.55;;;1.02;;
32032;SDS011;31720;52.638;9.216;2023-02-28T02:58:45;3.25;;;1.23;;
32032;SDS011;31720;52.638;9.216;2023-02-28T03:01:50;3.40;;;1.60;;
32032;SDS011;31720;52.638;9.216;2023-02-28T03:04:58;5.00;;;1.83;;
32032;SDS011;31720;52.638;9.216;2023-02-28T03:08:03;5.30;;;1.52;;
32032;SDS011;31720;52.638;9.216;2023-02-28T03:11:05;5.55;;;1.40;;
32032;SDS011;31720;52.638;9.216;2023-02-28T03:14:17;2.53;;;1.50;;
32032;SDS011;31720;52.638;9.216;2023-02-28T03:17:36;7.40;;;1.73;;
32032;SDS011;31720;52.638;9.216;2023-02-28T03:20:52;1.48;;;0.95;;
32032;SDS011;31720;52.638;9.216;2023-02-28T03:24:05;1.13;;;1.02;;
32032;SDS011;31720;52.638;9.216;2023-02-28T03:27:12;3.20;;;1.63;;
32032;SDS011;31720;52.638;9.216;2023-02-28T03:30:19;1.55;;;0.85;;
32032;SDS011;31720;52.638;9.216;2023-02-28T03:33:26;2.53;;;1.13;;
32032;SDS011;31720;52.638;9.216;2023-02-28T03:36:33;2.97;;;1.38;;
32032;SDS011;31720;52.638;9.216;2023-02-28T03:39:44;3.67;;;1.33;;
32032;SDS011;31720;52.638;9.216;2023-02-28T03:42:53;7.70;;;1.38;;
32032;SDS011;31720;52.638;9.216;2023-02-28T03:45:58;2.13;;;1.50;;
32032;SDS011;31720;52.638;9.216;2023-02-28T03:49:03;4.90;;;1.00;;
32032;SDS011;31720;52.638;9.216;2023-02-28T03:52:11;3.17;;;1.10;;
32032;SDS011;31720;52.638;9.216;2023-02-28T03:55:13;3.22;;;1.48;;
32032;SDS011;31720;52.638;9.216;2023-02-28T03:58:20;3.70;;;1.85;;
32032;SDS011;31720;52.638;9.216;2023-02-28T04:01:26;2.42;;;1.83;;
32032;SDS011;31720;52.638;9.216;2023-02-28T04:04:33;1.75;;;1.13;;
32032;SDS011;31720;52.638;9.216;2023-02-28T04:07:36;4.35;;;1.20;;
32032;SDS011;31720;52.638;9.216;2023-02-28T04:10:38;4.32;;;1.15;;
32032;SDS011;31720;52.638;9.216;2023-02-28T04:13:40;2.47;;;1.42;;
32032;SDS011;31720;52.638;9.216;2023-02-28T04:16:41;6.75;;;1.65;;
32032;SDS011;31720;52.638;9.216;2023-02-28T04:19:43;1.98;;;1.48;;
32032;SDS011;31720;52.638;9.216;2023-02-28T04:22:46;3.42;;;1.10;;
32032;SDS011;31720;52.638;9.216;2023-02-28T04:25:47;4.70;;;1.65;;
32032;SDS011;31720;52.638;9.216;2023-02-28T04:28:51;4.25;;;1.52;;
32032;SDS011;31720;52.638;9.216;2023-02-28T04:31:52;1.33;;;1.02;;
32032;SDS011;31720;52.638;9.216;2023-02-28T04:34:54;1.13;;;0.98;;
32032;SDS011;31720;52.638;9.216;2023-02-28T04:37:56;2.33;;;1.15;;
32032;SDS011;31720;52.638;9.216;2023-02-28T04:40:58;2.00;;;1.52;;
32032;SDS011;31720;52.638;9.216;2023-02-28T04:43:59;3.75;;;1.60;;
32032;SDS011;31720;52.638;9.216;2023-02-28T04:47:01;6.53;;;2.38;;
32032;SDS011;31720;52.638;9.216;2023-02-28T04:50:02;1.63;;;1.50;;
32032;SDS011;31720;52.638;9.216;2023-02-28T04:53:05;2.33;;;0.93;;
32032;SDS011;31720;52.638;9.216;2023-02-28T04:56:07;5.30;;;1.98;;
32032;SDS011;31720;52.638;9.216;2023-02-28T04:59:11;4.88;;;2.03;;
32032;SDS011;31720;52.638;9.216;2023-02-28T05:02:12;4.00;;;1.50;;
32032;SDS011;31720;52.638;9.216;2023-02-28T05:05:14;2.17;;;1.30;;
32032;SDS011;31720;52.638;9.216;2023-02-28T05:08:19;4.50;;;1.50;;
32032;SDS011;31720;52.638;9.216;2023-02-28T05:11:21;3.47;;;1.73;;
32032;SDS011;31720;52.638;9.216;2023-02-28T05:14:25;2.20;;;1.20;;
32032;SDS011;31720;52.638;9.216;2023-02-28T05:17:26;3.13;;;2.13;;
32032;SDS011;31720;52.638;9.216;2023-02-28T05:20:28;1.90;;;1.23;;
32032;SDS011;31720;52.638;9.216;2023-02-28T05:23:30;1.88;;;0.93;;
32032;SDS011;31720;52.638;9.216;2023-02-28T05:26:34;2.40;;;1.83;;
32032;SDS011;31720;52.638;9.216;2023-02-28T05:29:36;2.42;;;1.20;;
32032;SDS011;31720;52.638;9.216;2023-02-28T05:32:41;4.03;;;1.88;;
32032;SDS011;31720;52.638;9.216;2023-02-28T05:35:43;6.50;;;1.83;;
32032;SDS011;31720;52.638;9.216;2023-02-28T05:38:47;2.25;;;1.70;;
32032;SDS011;31720;52.638;9.216;2023-02-28T05:41:49;12.90;;;1.42;;
32032;SDS011;31720;52.638;9.216;2023-02-28T05:44:50;1.95;;;0.85;;
32032;SDS011;31720;52.638;9.216;2023-02-28T05:47:53;2.10;;;1.58;;
32032;SDS011;31720;52.638;9.216;2023-02-28T05:50:54;1.90;;;1.42;;
32032;SDS011;31720;52.638;9.216;2023-02-28T05:53:59;4.85;;;1.38;;
32032;SDS011;31720;52.638;9.216;2023-02-28T05:57:01;1.58;;;1.13;;
32032;SDS011;31720;52.638;9.216;2023-02-28T06:00:03;6.45;;;1.35;;
32032;SDS011;31720;52.638;9.216;2023-02-28T06:03:05;1.00;;;0.93;;
32032;SDS011;31720;52.638;9.216;2023-02-28T06:06:06;5.53;;;1.48;;
32032;SDS011;31720;52.638;9.216;2023-02-28T06:09:09;1.65;;;1.27;;
32032;SDS011;31720;52.638;9.216;2023-02-28T06:12:10;1.98;;;1.13;;
32032;SDS011;31720;52.638;9.216;2023-02-28T06:15:12;2.20;;;0.80;;
32032;SDS011;31720;52.638;9.216;2023-02-28T06:18:14;2.40;;;1.10;;
32032;SDS011;31720;52.638;9.216;2023-02-28T06:21:16;2.25;;;1.10;;
32032;SDS011;31720;52.638;9.216;2023-02-28T06:24:18;2.38;;;1.17;;
32032;SDS011;31720;52.638;9.216;2023-02-28T06:27:20;2.67;;;1.50;;
32032;SDS011;31720;52.638;9.216;2023-02-28T06:30:22;3.00;;;1.55;;
32032;SDS011;31720;52.638;9.216;2023-02-28T06:33:25;1.48;;;0.80;;
32032;SDS011;31720;52.638;9.216;2023-02-28T06:36:26;6.90;;;2.03;;
32032;SDS011;31720;52.638;9.216;2023-02-28T06:39:29;3.25;;;1.25;;
32032;SDS011;31720;52.638;9.216;2023-02-28T06:42:30;3.28;;;1.50;;
32032;SDS011;31720;52.638;9.216;2023-02-28T06:45:32;4.05;;;2.50;;
32032;SDS011;31720;52.638;9.216;2023-02-28T06:48:33;8.02;;;2.42;;
32032;SDS011;31720;52.638;9.216;2023-02-28T06:51:36;3.45;;;1.80;;
32032;SDS011;31720;52.638;9.216;2023-02-28T06:54:40;1.38;;;0.90;;
32032;SDS011;31720;52.638;9.216;2023-02-28T06:57:42;3.45;;;1.88;;
32032;SDS011;31720;52.638;9.216;2023-02-28T07:00:43;6.57;;;1.88;;
32032;SDS011;31720;52.638;9.216;2023-02-28T07:03:45;9.75;;;3.00;;
32032;SDS011;31720;52.638;9.216;2023-02-28T07:06:51;7.93;;;2.15;;
32032;SDS011;31720;52.638;9.216;2023-02-28T07:09:57;5.55;;;2.30;;
32032;SDS011;31720;52.638;9.216;2023-02-28T07:12:58;3.38;;;1.90;;
32032;SDS011;31720;52.638;9.216;2023-02-28T07:16:00;3.15;;;1.92;;
32032;SDS011;31720;52.638;9.216;2023-02-28T07:19:04;5.45;;;2.53;;
32032;SDS011;31720;52.638;9.216;2023-02-28T07:22:05;7.65;;;2.65;;
32032;SDS011;31720;52.638;9.216;2023-02-28T07:25:08;3.80;;;2.15;;
32032;SDS011;31720;52.638;9.216;2023-02-28T07:28:10;5.45;;;2.47;;
32032;SDS011;31720;52.638;9.216;2023-02-28T07:31:11;5.47;;;3.22;;
32032;SDS011;31720;52.638;9.216;2023-02-28T07:34:14;9.73;;;3.55;;
32032;SDS011;31720;52.638;9.216;2023-02-28T07:37:15;3.08;;;2.35;;
32032;SDS011;31720;52.638;9.216;2023-02-28T07:40:18;7.60;;;2.20;;
32032;SDS011;31720;52.638;9.216;2023-02-28T07:43:19;6.40;;;2.60;;
32032;SDS011;31720;52.638;9.216;2023-02-28T07:46:20;3.35;;;2.22;;
32032;SDS011;31720;52.638;9.216;2023-02-28T07:49:22;6.70;;;2.78;;
32032;SDS011;31720;52.638;9.216;2023-02-28T07:52:23;13.98;;;2.40;;
32032;SDS011;31720;52.638;9.216;2023-02-28T07:55:26;4.95;;;2.45;;
32032;SDS011;31720;52.638;9.216;2023-02-28T07:58:28;3.35;;;2.20;;
32032;SDS011;31720;52.638;9.216;2023-02-28T08:01:30;5.10;;;2.28;;
32032;SDS011;31720;52.638;9.216;2023-02-28T08:04:32;3.67;;;2.53;;
32032;SDS011;31720;52.638;9.216;2023-02-28T08:07:33;4.97;;;2.30;;
32032;SDS011;31720;52.638;9.216;2023-02-28T08:10:36;4.65;;;1.85;;
32032;SDS011;31720;52.638;9.216;2023-02-28T08:13:38;3.40;;;2.42;;
32032;SDS011;31720;52.638;9.216;2023-02-28T08:16:39;6.50;;;2.95;;
32032;SDS011;31720;52.638;9.216;2023-02-28T08:19:40;7.50;;;3.13;;
32032;SDS011;31720;52.638;9.216;2023-02-28T08:22:42;3.78;;;2.15;;
32032;SDS011;31720;52.638;9.216;2023-02-28T08:25:44;5.05;;;3.08;;
32032;SDS011;31720;52.638;9.216;2023-02-28T08:28:53;5.90;;;3.60;;
32032;SDS011;31720;52.638;9.216;2023-02-28T08:31:54;4.00;;;2.88;;
32032;SDS011;31720;52.638;9.216;2023-02-28T08:34:56;4.13;;;2.38;;
32032;SDS011;31720;52.638;9.216;2023-02-28T08:37:57;3.88;;;2.65;;
32032;SDS011;31720;52.638;9.216;2023-02-28T08:41:00;5.22;;;2.65;;
32032;SDS011;31720;52.638;9.216;2023-02-28T08:44:05;10.27;;;2.65;;
32032;SDS011;31720;52.638;9.216;2023-02-28T08:47:07;3.55;;;2.30;;
32032;SDS011;31720;52.638;9.216;2023-02-28T08:50:09;5.00;;;2.42;;
32032;SDS011;31720;52.638;9.216;2023-02-28T08:53:10;5.57;;;2.50;;
32032;SDS011;31720;52.638;9.216;2023-02-28T08:56:13;4.78;;;2.58;;
32032;SDS011;31720;52.638;9.216;2023-02-28T08:59:17;5.10;;;2.70;;
32032;SDS011;31720;52.638;9.216;2023-02-28T09:02:18;6.35;;;2.35;;
32032;SDS011;31720;52.638;9.216;2023-02-28T09:05:20;3.92;;;2.22;;
32032;SDS011;31720;52.638;9.216;2023-02-28T09:08:21;7.45;;;2.78;;
32032;SDS011;31720;52.638;9.216;2023-02-28T09:11:24;4.45;;;2.13;;
32032;SDS011;31720;52.638;9.216;2023-02-28T09:14:26;3.83;;;2.28;;
32032;SDS011;31720;52.638;9.216;2023-02-28T09:17:28;4.57;;;2.58;;
32032;SDS011;31720;52.638;9.216;2023-02-28T09:20:29;5.63;;;2.65;;
32032;SDS011;31720;52.638;9.216;2023-02-28T09:23:31;3.58;;;2.00;;
32032;SDS011;31720;52.638;9.216;2023-02-28T09:26:33;5.88;;;3.15;;
32032;SDS011;31720;52.638;9.216;2023-02-28T09:29:35;3.25;;;2.10;;
32032;SDS011;31720;52.638;9.216;2023-02-28T09:32:36;4.15;;;1.95;;
32032;SDS011;31720;52.638;9.216;2023-02-28T09:35:37;2.60;;;1.45;;
32032;SDS011;31720;52.638;9.216;2023-02-28T09:38:39;4.15;;;1.38;;
32032;SDS011;31720;52.638;9.216;2023-02-28T09:41:42;2.78;;;1.45;;
32032;SDS011;31720;52.638;9.216;2023-02-28T09:44:48;6.95;;;1.60;;
32032;SDS011;31720;52.638;9.216;2023-02-28T09:47:52;2.85;;;1.05;;
32032;SDS011;31720;52.638;9.216;2023-02-28T09:51:03;1.38;;;0.85;;
32032;SDS011;31720;52.638;9.216;2023-02-28T09:54:09;1.48;;;1.05;;
32032;SDS011;31720;52.638;9.216;2023-02-28T09:57:21;0.57;;;0.57;;
32032;SDS011;31720;52.638;9.216;2023-02-28T10:00:33;3.50;;;1.85;;
32032;SDS011;31720;52.638;9.216;2023-02-28T10:03:40;2.45;;;1.45;;
32032;SDS011;31720;52.638;9.216;2023-02-28T10:06:48;2.03;;;1.02;;
32032;SDS011;31720;52.638;9.216;2023-02-28T10:09:52;3.55;;;1.77;;
32032;SDS011;31720;52.638;9.216;2023-02-28T10:12:59;1.80;;;1.23;;
32032;SDS011;31720;52.638;9.216;2023-02-28T10:16:05;2.03;;;1.20;;
32032;SDS011;31720;52.638;9.216;2023-02-28T10:19:09;5.03;;;0.98;;
32032;SDS011;31720;52.638;9.216;2023-02-28T10:22:17;1.98;;;0.95;;
32032;SDS011;31720;52.638;9.216;2023-02-28T10:25:23;1.33;;;0.80;;
32032;SDS011;31720;52.638;9.216;2023-02-28T10:28:27;1.58;;;0.70;;
32032;SDS011;31720;52.638;9.216;2023-02-28T10:31:30;1.80;;;1.00;;
32032;SDS011;31720;52.638;9.216;2023-02-28T10:34:32;1.30;;;0.30;;
32032;SDS011;31720;52.638;9.216;2023-02-28T10:37:33;1.02;;;0.70;;
32032;SDS011;31720;52.638;9.216;2023-02-28T10:40:38;0.70;;;0.55;;
32032;SDS011;31720;52.638;9.216;2023-02-28T10:43:41;1.55;;;0.55;;
32032;SDS011;31720;52.638;9.216;2023-02-28T10:46:44;1.05;;;0.45;;
32032;SDS011;31720;52.638;9.216;2023-02-28T10:49:46;0.55;;;0.45;;
32032;SDS011;31720;52.638;9.216;2023-02-28T10:52:48;0.47;;;0.30;;
32032;SDS011;31720;52.638;9.216;2023-02-28T10:55:55;2.83;;;0.70;;
32032;SDS011;31720;52.638;9.216;2023-02-28T10:58:59;6.40;;;1.70;;
32032;SDS011;31720;52.638;9.216;2023-02-28T11:02:08;3.00;;;1.02;;
32032;SDS011;31720;52.638;9.216;2023-02-28T11:05:33;0.30;;;0.30;;
32032;SDS011;31720;52.638;9.216;2023-02-28T11:08:43;0.20;;;0.20;;
32032;SDS011;31720;52.638;9.216;2023-02-28T11:14:50;0.30;;;0.30;;
32032;SDS011;31720;52.638;9.216;2023-02-28T11:17:54;1.13;;;0.50;;
32032;SDS011;31720;52.638;9.216;2023-02-28T11:20:57;0.30;;;0.30;;
32032;SDS011;31720;52.638;9.216;2023-02-28T11:24:02;0.35;;;0.35;;
32032;SDS011;31720;52.638;9.216;2023-02-28T11:27:10;10.00;;;2.53;;
32032;SDS011;31720;52.638;9.216;2023-02-28T11:30:32;15.85;;;5.88;;
32032;SDS011;31720;52.638;9.216;2023-02-28T11:36:41;1.27;;;0.50;;
32032;SDS011;31720;52.638;9.216;2023-02-28T11:39:44;2.22;;;1.00;;
32032;SDS011;31720;52.638;9.216;2023-02-28T11:42:50;1.95;;;0.60;;
32032;SDS011;31720;52.638;9.216;2023-02-28T11:46:10;1.00;;;0.50;;
32032;SDS011;31720;52.638;9.216;2023-02-28T11:49:28;6.45;;;1.23;;
32032;SDS011;31720;52.638;9.216;2023-02-28T11:52:36;1.70;;;1.00;;
32032;SDS011;31720;52.638;9.216;2023-02-28T11:55:47;0.88;;;0.73;;
32032;SDS011;31720;52.638;9.216;2023-02-28T11:58:55;1.13;;;0.77;;
32032;SDS011;31720;52.638;9.216;2023-02-28T12:02:19;1.80;;;1.13;;
32032;SDS011;31720;52.638;9.216;2023-02-28T12:05:25;1.70;;;0.70;;
32032;SDS011;31720;52.638;9.216;2023-02-28T12:08:43;1.42;;;0.80;;
32032;SDS011;31720;52.638;9.216;2023-02-28T12:11:51;1.17;;;0.52;;
32032;SDS011;31720;52.638;9.216;2023-02-28T12:15:04;1.70;;;0.90;;
32032;SDS011;31720;52.638;9.216;2023-02-28T12:18:25;1.05;;;0.57;;
32032;SDS011;31720;52.638;9.216;2023-02-28T12:21:42;0.95;;;0.57;;
32032;SDS011;31720;52.638;9.216;2023-02-28T12:28:21;2.22;;;0.60;;
32032;SDS011;31720;52.638;9.216;2023-02-28T12:31:27;2.17;;;0.95;;
32032;SDS011;31720;52.638;9.216;2023-02-28T12:34:33;1.45;;;0.77;;
32032;SDS011;31720;52.638;9.216;2023-02-28T12:37:38;1.17;;;0.80;;
32032;SDS011;31720;52.638;9.216;2023-02-28T12:40:47;0.50;;;0.50;;
32032;SDS011;31720;52.638;9.216;2023-02-28T12:43:52;3.00;;;0.82;;
32032;SDS011;31720;52.638;9.216;2023-02-28T12:46:59;1.35;;;0.60;;
32032;SDS011;31720;52.638;9.216;2023-02-28T12:50:07;0.98;;;0.70;;
32032;SDS011;31720;52.638;9.216;2023-02-28T12:53:13;1.33;;;0.60;;
32032;SDS011;31720;52.638;9.216;2023-02-28T12:56:20;0.77;;;0.57;;
32032;SDS011;31720;52.638;9.216;2023-02-28T12:59:32;2.33;;;0.68;;
32032;SDS011;31720;52.638;9.216;2023-02-28T13:02:43;1.38;;;0.73;;
32032;SDS011;31720;52.638;9.216;2023-02-28T13:06:06;0.70;;;0.53;;
32032;SDS011;31720;52.638;9.216;2023-02-28T13:09:24;1.52;;;1.17;;
32032;SDS011;31720;52.638;9.216;2023-02-28T13:12:26;1.13;;;0.47;;
32032;SDS011;31720;52.638;9.216;2023-02-28T13:15:27;1.73;;;0.75;;
32032;SDS011;31720;52.638;9.216;2023-02-28T13:18:33;3.13;;;1.13;;
32032;SDS011;31720;52.638;9.216;2023-02-28T13:21:44;1.00;;;0.57;;
32032;SDS011;31720;52.638;9.216;2023-02-28T13:24:46;10.05;;;1.50;;
32032;SDS011;31720;52.638;9.216;2023-02-28T13:27:51;0.77;;;0.60;;
32032;SDS011;31720;52.638;9.216;2023-02-28T13:31:03;5.18;;;1.73;;
32032;SDS011;31720;52.638;9.216;2023-02-28T13:37:34;3.47;;;1.00;;
32032;SDS011;31720;52.638;9.216;2023-02-28T13:40:38;0.93;;;0.52;;
32032;SDS011;31720;52.638;9.216;2023-02-28T13:43:59;0.70;;;0.40;;
32032;SDS011;31720;52.638;9.216;2023-02-28T13:50:34;2.33;;;0.73;;
32032;SDS011;31720;52.638;9.216;2023-02-28T13:57:08;1.52;;;0.68;;
32032;SDS011;31720;52.638;9.216;2023-02-28T14:00:23;1.10;;;0.50;;
32032;SDS011;31720;52.638;9.216;2023-02-28T14:03:44;1.05;;;0.82;;
32032;SDS011;31720;52.638;9.216;2023-02-28T14:06:58;2.42;;;0.50;;
32032;SDS011;31720;52.638;9.216;2023-02-28T14:10:03;0.95;;;0.73;;
32032;SDS011;31720;52.638;9.216;2023-02-28T14:13:12;0.68;;;0.50;;
32032;SDS011;31720;52.638;9.216;2023-02-28T14:16:36;0.68;;;0.60;;
32032;SDS011;31720;52.638;9.216;2023-02-28T14:19:41;0.70;;;0.60;;
32032;SDS011;31720;52.638;9.216;2023-02-28T14:22:50;1.33;;;0.50;;
32032;SDS011;31720;52.638;9.216;2023-02-28T14:26:01;1.23;;;0.55;;
32032;SDS011;31720;52.638;9.216;2023-02-28T14:29:15;1.13;;;0.60;;
32032;SDS011;31720;52.638;9.216;2023-02-28T14:32:31;2.10;;;0.95;;
32032;SDS011;31720;52.638;9.216;2023-02-28T14:35:46;1.00;;;0.55;;
32032;SDS011;31720;52.638;9.216;2023-02-28T14:38:59;2.30;;;0.40;;
32032;SDS011;31720;52.638;9.216;2023-02-28T14:42:21;3.83;;;1.13;;
32032;SDS011;31720;52.638;9.216;2023-02-28T14:45:29;2.53;;;0.63;;
32032;SDS011;31720;52.638;9.216;2023-02-28T14:48:31;0.70;;;0.70;;
32032;SDS011;31720;52.638;9.216;2023-02-28T14:51:35;1.08;;;0.52;;
32032;SDS011;31720;52.638;9.216;2023-02-28T14:54:37;1.08;;;0.60;;
32032;SDS011;31720;52.638;9.216;2023-02-28T14:57:41;0.32;;;0.32;;
32032;SDS011;31720;52.638;9.216;2023-02-28T15:00:51;1.20;;;0.57;;
32032;SDS011;31720;52.638;9.216;2023-02-28T15:03:58;0.77;;;0.50;;
32032;SDS011;31720;52.638;9.216;2023-02-28T15:07:07;1.00;;;0.43;;
32032;SDS011;31720;52.638;9.216;2023-02-28T15:10:10;4.05;;;0.80;;
32032;SDS011;31720;52.638;9.216;2023-02-28T15:13:15;0.40;;;0.40;;
32032;SDS011;31720;52.638;9.216;2023-02-28T15:16:19;2.40;;;0.80;;
32032;SDS011;31720;52.638;9.216;2023-02-28T15:19:24;1.23;;;0.68;;
32032;SDS011;31720;52.638;9.216;2023-02-28T15:22:28;0.85;;;0.57;;
32032;SDS011;31720;52.638;9.216;2023-02-28T15:25:35;0.28;;;0.25;;
32032;SDS011;31720;52.638;9.216;2023-02-28T15:28:38;1.58;;;0.47;;
32032;SDS011;31720;52.638;9.216;2023-02-28T15:31:40;0.22;;;0.22;;
32032;SDS011;31720;52.638;9.216;2023-02-28T15:34:45;0.77;;;0.50;;
32032;SDS011;31720;52.638;9.216;2023-02-28T15:37:47;0.98;;;0.60;;
32032;SDS011;31720;52.638;9.216;2023-02-28T15:40:53;4.15;;;1.30;;
32032;SDS011;31720;52.638;9.216;2023-02-28T15:47:19;7.45;;;2.03;;
32032;SDS011;31720;52.638;9.216;2023-02-28T15:50:22;11.80;;;2.25;;
32032;SDS011;31720;52.638;9.216;2023-02-28T15:53:25;19.33;;;5.65;;
32032;SDS011;31720;52.638;9.216;2023-02-28T15:56:30;12.88;;;4.18;;
32032;SDS011;31720;52.638;9.216;2023-02-28T15:59:35;8.80;;;3.17;;
32032;SDS011;31720;52.638;9.216;2023-02-28T16:02:37;2.88;;;1.08;;
32032;SDS011;31720;52.638;9.216;2023-02-28T16:05:39;3.70;;;0.50;;
32032;SDS011;31720;52.638;9.216;2023-02-28T16:08:40;0.75;;;0.40;;
32032;SDS011;31720;52.638;9.216;2023-02-28T16:11:43;4.00;;;1.50;;
32032;SDS011;31720;52.638;9.216;2023-02-28T16:14:48;0.95;;;0.85;;
32032;SDS011;31720;52.638;9.216;2023-02-28T16:17:53;3.75;;;1.38;;
32032;SDS011;31720;52.638;9.216;2023-02-28T16:20:54;4.18;;;1.77;;
32032;SDS011;31720;52.638;9.216;2023-02-28T16:23:56;3.92;;;0.93;;
32032;SDS011;31720;52.638;9.216;2023-02-28T16:26:57;2.10;;;0.95;;
32032;SDS011;31720;52.638;9.216;2023-02-28T16:30:01;0.88;;;0.60;;
32032;SDS011;31720;52.638;9.216;2023-02-28T16:33:02;0.32;;;0.30;;
32032;SDS011;31720;52.638;9.216;2023-02-28T16:36:05;0.57;;;0.45;;
32032;SDS011;31720;52.638;9.216;2023-02-28T16:39:07;1.42;;;0.75;;
32032;SDS011;31720;52.638;9.216;2023-02-28T16:42:10;1.13;;;0.80;;
32032;SDS011;31720;52.638;9.216;2023-02-28T16:45:19;1.20;;;0.77;;
32032;SDS011;31720;52.638;9.216;2023-02-28T16:48:23;3.55;;;1.15;;
32032;SDS011;31720;52.638;9.216;2023-02-28T16:51:25;2.03;;;0.60;;
32032;SDS011;31720;52.638;9.216;2023-02-28T16:54:26;1.75;;;1.02;;
32032;SDS011;31720;52.638;9.216;2023-02-28T16:57:27;1.27;;;0.82;;
32032;SDS011;31720;52.638;9.216;2023-02-28T17:00:31;4.80;;;1.02;;
32032;SDS011;31720;52.638;9.216;2023-02-28T17:03:33;2.05;;;0.77;;
32032;SDS011;31720;52.638;9.216;2023-02-28T17:06:36;4.00;;;1.20;;
32032;SDS011;31720;52.638;9.216;2023-02-28T17:09:37;2.55;;;0.98;;
32032;SDS011;31720;52.638;9.216;2023-02-28T17:12:39;2.53;;;0.90;;
32032;SDS011;31720;52.638;9.216;2023-02-28T17:15:41;4.68;;;1.38;;
32032;SDS011;31720;52.638;9.216;2023-02-28T17:18:46;8.80;;;2.67;;
32032;SDS011;31720;52.638;9.216;2023-02-28T17:21:48;8.40;;;2.90;;
32032;SDS011;31720;52.638;9.216;2023-02-28T17:24:50;4.35;;;1.75;;
32032;SDS011;31720;52.638;9.216;2023-02-28T17:27:51;6.13;;;1.98;;
32032;SDS011;31720;52.638;9.216;2023-02-28T17:30:54;6.88;;;1.63;;
32032;SDS011;31720;52.638;9.216;2023-02-28T17:33:55;3.03;;;1.40;;
32032;SDS011;31720;52.638;9.216;2023-02-28T17:36:56;3.90;;;1.30;;
32032;SDS011;31720;52.638;9.216;2023-02-28T17:39:58;3.17;;;1.38;;
32032;SDS011;31720;52.638;9.216;2023-02-28T17:42:59;3.95;;;1.50;;
32032;SDS011;31720;52.638;9.216;2023-02-28T17:46:02;4.30;;;1.17;;
32032;SDS011;31720;52.638;9.216;2023-02-28T17:49:04;2.95;;;1.15;;
32032;SDS011;31720;52.638;9.216;2023-02-28T17:52:06;2.65;;;1.60;;
32032;SDS011;31720;52.638;9.216;2023-02-28T17:55:08;2.00;;;0.90;;
32032;SDS011;31720;52.638;9.216;2023-02-28T17:58:10;4.55;;;0.98;;
32032;SDS011;31720;52.638;9.216;2023-02-28T18:01:14;5.07;;;1.70;;
32032;SDS011;31720;52.638;9.216;2023-02-28T18:04:16;8.73;;;3.72;;
32032;SDS011;31720;52.638;9.216;2023-02-28T18:07:17;8.90;;;3.90;;
32032;SDS011;31720;52.638;9.216;2023-02-28T18:10:21;4.80;;;2.72;;
32032;SDS011;31720;52.638;9.216;2023-02-28T18:13:22;3.63;;;1.95;;
32032;SDS011;31720;52.638;9.216;2023-02-28T18:16:25;3.40;;;2.03;;
32032;SDS011;31720;52.638;9.216;2023-02-28T18:19:27;3.33;;;2.15;;
32032;SDS011;31720;52.638;9.216;2023-02-28T18:22:28;7.55;;;2.78;;
32032;SDS011;31720;52.638;9.216;2023-02-28T18:25:30;3.55;;;2.20;;
32032;SDS011;31720;52.638;9.216;2023-02-28T18:28:31;6.53;;;2.30;;
32032;SDS011;31720;52.638;9.216;2023-02-28T18:31:35;4.70;;;2.10;;
32032;SDS011;31720;52.638;9.216;2023-02-28T18:34:36;6.00;;;2.88;;
32032;SDS011;31720;52.638;9.216;2023-02-28T18:37:37;9.48;;;2.85;;
32032;SDS011;31720;52.638;9.216;2023-02-28T18:40:39;5.72;;;2.30;;
32032;SDS011;31720;52.638;9.216;2023-02-28T18:43:41;6.00;;;3.15;;
32032;SDS011;31720;52.638;9.216;2023-02-28T18:46:44;6.65;;;2.78;;
32032;SDS011;31720;52.638;9.216;2023-02-28T18:49:46;7.03;;;2.50;;
32032;SDS011;31720;52.638;9.216;2023-02-28T18:52:47;7.82;;;3.28;;
32032;SDS011;31720;52.638;9.216;2023-02-28T18:55:48;8.48;;;3.17;;
32032;SDS011;31720;52.638;9.216;2023-02-28T18:58:50;5.30;;;2.03;;
32032;SDS011;31720;52.638;9.216;2023-02-28T19:01:53;8.40;;;3.17;;
32032;SDS011;31720;52.638;9.216;2023-02-28T19:04:54;15.63;;;3.42;;